sensor_id;sensor_type;location;lat;lon;timestamp;P1;durP1;ratioP1;P2;durP2;ratioP2
3779;SDS011;1905;52.482;9.802;2023-03-15T00:00:00;1.70;;;1.60;;
3779;SDS011;1905;52.482;9.802;2023-03-15T00:02:29;8.07;;;2.10;;
3779;SDS011;1905;52.482;9.802;2023-03-15T00:04:57;3.07;;;1.50;;
3779;SDS011;1905;52.482;9.802;2023-03-15T00:07:26;1.70;;;1.40;;
3779;SDS011;1905;52.482;9.802;2023-03-15T00:09:53;4.37;;;1.50;;
3779;SDS011;1905;52.482;9.802;2023-03-15T00:12:22;5.73;;;1.63;;
3779;SDS011;1905;52.482;9.802;2023-03-15T00:14:49;10.13;;;1.70;;
3779;SDS011;1905;52.482;9.802;2023-03-15T00:17:17;2.17;;;1.97;;
3779;SDS011;1905;52.482;9.802;2023-03-15T00:19:45;10.60;;;2.13;;
3779;SDS011;1905;52.482;9.802;2023-03-15T00:22:13;1.63;;;1.27;;
3779;SDS011;1905;52.482;9.802;2023-03-15T00:24:42;2.13;;;1.97;;
3779;SDS011;1905;52.482;9.802;2023-03-15T00:27:10;6.53;;;1.60;;
3779;SDS011;1905;52.482;9.802;2023-03-15T00:29:37;2.30;;;1.97;;
3779;SDS011;1905;52.482;9.802;2023-03-15T00:32:11;2.93;;;1.80;;
3779;SDS011;1905;52.482;9.802;2023-03-15T00:34:39;2.30;;;1.37;;
3779;SDS011;1905;52.482;9.802;2023-03-15T00:37:06;2.70;;;2.10;;
3779;SDS011;1905;52.482;9.802;2023-03-15T00:39:35;6.63;;;1.80;;
3779;SDS011;1905;52.482;9.802;2023-03-15T00:42:08;3.37;;;1.60;;
3779;SDS011;1905;52.482;9.802;2023-03-15T00:44:35;3.13;;;1.30;;
3779;SDS011;1905;52.482;9.802;2023-03-15T00:47:03;5.00;;;1.40;;
3779;SDS011;1905;52.482;9.802;2023-03-15T00:49:31;2.00;;;1.33;;
3779;SDS011;1905;52.482;9.802;2023-03-15T00:52:00;7.30;;;1.63;;
3779;SDS011;1905;52.482;9.802;2023-03-15T00:54:28;1.67;;;1.37;;
3779;SDS011;1905;52.482;9.802;2023-03-15T00:56:58;3.43;;;1.70;;
3779;SDS011;1905;52.482;9.802;2023-03-15T00:59:28;6.83;;;1.53;;
3779;SDS011;1905;52.482;9.802;2023-03-15T01:02:00;3.77;;;1.43;;
3779;SDS011;1905;52.482;9.802;2023-03-15T01:04:28;3.87;;;1.57;;
3779;SDS011;1905;52.482;9.802;2023-03-15T01:06:56;3.90;;;1.40;;
3779;SDS011;1905;52.482;9.802;2023-03-15T01:09:24;1.63;;;1.53;;
3779;SDS011;1905;52.482;9.802;2023-03-15T01:11:52;9.90;;;2.10;;
3779;SDS011;1905;52.482;9.802;2023-03-15T01:14:20;1.43;;;1.33;;
3779;SDS011;1905;52.482;9.802;2023-03-15T01:16:49;2.90;;;1.53;;
3779;SDS011;1905;52.482;9.802;2023-03-15T01:19:17;7.10;;;1.20;;
3779;SDS011;1905;52.482;9.802;2023-03-15T01:21:44;6.90;;;2.27;;
3779;SDS011;1905;52.482;9.802;2023-03-15T01:24:15;4.87;;;1.90;;
3779;SDS011;1905;52.482;9.802;2023-03-15T01:26:43;3.80;;;1.77;;
3779;SDS011;1905;52.482;9.802;2023-03-15T01:29:10;5.23;;;1.87;;
3779;SDS011;1905;52.482;9.802;2023-03-15T01:31:38;3.47;;;2.03;;
3779;SDS011;1905;52.482;9.802;2023-03-15T01:34:08;5.73;;;2.63;;
3779;SDS011;1905;52.482;9.802;2023-03-15T01:36:36;1.20;;;1.20;;
3779;SDS011;1905;52.482;9.802;2023-03-15T01:39:04;2.47;;;1.60;;
3779;SDS011;1905;52.482;9.802;2023-03-15T01:41:40;4.23;;;1.80;;
3779;SDS011;1905;52.482;9.802;2023-03-15T01:44:10;4.27;;;1.80;;
3779;SDS011;1905;52.482;9.802;2023-03-15T01:46:39;4.93;;;1.67;;
3779;SDS011;1905;52.482;9.802;2023-03-15T01:49:21;2.83;;;1.30;;
3779;SDS011;1905;52.482;9.802;2023-03-15T01:51:52;3.23;;;1.10;;
3779;SDS011;1905;52.482;9.802;2023-03-15T01:54:27;4.10;;;1.53;;
3779;SDS011;1905;52.482;9.802;2023-03-15T01:57:00;3.23;;;1.50;;
3779;SDS011;1905;52.482;9.802;2023-03-15T01:59:33;4.80;;;1.63;;
3779;SDS011;1905;52.482;9.802;2023-03-15T02:02:05;2.23;;;1.43;;
3779;SDS011;1905;52.482;9.802;2023-03-15T02:04:35;2.50;;;1.67;;
3779;SDS011;1905;52.482;9.802;2023-03-15T02:07:13;3.10;;;1.67;;
3779;SDS011;1905;52.482;9.802;2023-03-15T02:09:46;5.90;;;1.70;;
3779;SDS011;1905;52.482;9.802;2023-03-15T02:12:19;2.83;;;1.10;;
3779;SDS011;1905;52.482;9.802;2023-03-15T02:14:47;2.97;;;2.10;;
3779;SDS011;1905;52.482;9.802;2023-03-15T02:17:18;8.03;;;2.00;;
3779;SDS011;1905;52.482;9.802;2023-03-15T02:19:55;3.90;;;1.90;;
3779;SDS011;1905;52.482;9.802;2023-03-15T02:22:29;2.47;;;1.83;;
3779;SDS011;1905;52.482;9.802;2023-03-15T02:25:05;1.90;;;1.27;;
3779;SDS011;1905;52.482;9.802;2023-03-15T02:27:41;7.60;;;1.93;;
3779;SDS011;1905;52.482;9.802;2023-03-15T02:30:09;7.77;;;2.03;;
3779;SDS011;1905;52.482;9.802;2023-03-15T02:32:40;7.90;;;2.30;;
3779;SDS011;1905;52.482;9.802;2023-03-15T02:35:08;2.73;;;1.90;;
3779;SDS011;1905;52.482;9.802;2023-03-15T02:37:35;5.50;;;1.03;;
3779;SDS011;1905;52.482;9.802;2023-03-15T02:40:08;4.80;;;1.73;;
3779;SDS011;1905;52.482;9.802;2023-03-15T02:42:44;10.13;;;2.20;;
3779;SDS011;1905;52.482;9.802;2023-03-15T02:45:14;3.33;;;1.70;;
3779;SDS011;1905;52.482;9.802;2023-03-15T02:47:41;4.30;;;1.50;;
3779;SDS011;1905;52.482;9.802;2023-03-15T02:50:10;2.30;;;2.10;;
3779;SDS011;1905;52.482;9.802;2023-03-15T02:52:38;3.03;;;1.87;;
3779;SDS011;1905;52.482;9.802;2023-03-15T02:55:06;2.53;;;1.53;;
3779;SDS011;1905;52.482;9.802;2023-03-15T02:57:34;1.80;;;1.70;;
3779;SDS011;1905;52.482;9.802;2023-03-15T03:00:04;2.97;;;1.50;;
3779;SDS011;1905;52.482;9.802;2023-03-15T03:02:39;2.30;;;1.67;;
3779;SDS011;1905;52.482;9.802;2023-03-15T03:05:09;4.60;;;1.70;;
3779;SDS011;1905;52.482;9.802;2023-03-15T03:07:37;5.13;;;1.50;;
3779;SDS011;1905;52.482;9.802;2023-03-15T03:10:08;4.73;;;2.23;;
3779;SDS011;1905;52.482;9.802;2023-03-15T03:12:44;3.30;;;1.77;;
3779;SDS011;1905;52.482;9.802;2023-03-15T03:15:14;1.10;;;1.10;;
3779;SDS011;1905;52.482;9.802;2023-03-15T03:17:42;1.70;;;1.33;;
3779;SDS011;1905;52.482;9.802;2023-03-15T03:20:10;5.13;;;1.50;;
3779;SDS011;1905;52.482;9.802;2023-03-15T03:22:43;9.43;;;1.80;;
3779;SDS011;1905;52.482;9.802;2023-03-15T03:25:11;2.37;;;1.30;;
3779;SDS011;1905;52.482;9.802;2023-03-15T03:27:39;2.30;;;1.73;;
3779;SDS011;1905;52.482;9.802;2023-03-15T03:30:09;2.07;;;1.30;;
3779;SDS011;1905;52.482;9.802;2023-03-15T03:32:45;3.37;;;1.67;;
3779;SDS011;1905;52.482;9.802;2023-03-15T03:35:13;1.67;;;1.57;;
3779;SDS011;1905;52.482;9.802;2023-03-15T03:37:41;3.07;;;1.77;;
3779;SDS011;1905;52.482;9.802;2023-03-15T03:40:17;1.70;;;1.60;;
3779;SDS011;1905;52.482;9.802;2023-03-15T03:42:44;5.97;;;2.50;;
3779;SDS011;1905;52.482;9.802;2023-03-15T03:45:14;4.80;;;1.80;;
3779;SDS011;1905;52.482;9.802;2023-03-15T03:47:43;3.87;;;1.90;;
3779;SDS011;1905;52.482;9.802;2023-03-15T03:50:13;3.80;;;1.83;;
3779;SDS011;1905;52.482;9.802;2023-03-15T03:52:41;2.73;;;1.83;;
3779;SDS011;1905;52.482;9.802;2023-03-15T03:55:14;3.93;;;2.53;;
3779;SDS011;1905;52.482;9.802;2023-03-15T03:57:43;1.93;;;1.73;;
3779;SDS011;1905;52.482;9.802;2023-03-15T04:00:19;7.43;;;3.37;;
3779;SDS011;1905;52.482;9.802;2023-03-15T04:02:49;2.30;;;2.10;;
3779;SDS011;1905;52.482;9.802;2023-03-15T04:05:19;5.57;;;2.57;;
3779;SDS011;1905;52.482;9.802;2023-03-15T04:07:48;5.80;;;3.23;;
3779;SDS011;1905;52.482;9.802;2023-03-15T04:10:17;10.23;;;3.00;;
3779;SDS011;1905;52.482;9.802;2023-03-15T04:12:47;4.23;;;1.90;;
3779;SDS011;1905;52.482;9.802;2023-03-15T04:15:14;4.77;;;2.97;;
3779;SDS011;1905;52.482;9.802;2023-03-15T04:17:42;2.70;;;2.40;;
3779;SDS011;1905;52.482;9.802;2023-03-15T04:20:11;3.27;;;2.97;;
3779;SDS011;1905;52.482;9.802;2023-03-15T04:22:43;10.93;;;3.50;;
3779;SDS011;1905;52.482;9.802;2023-03-15T04:25:34;4.43;;;2.90;;
3779;SDS011;1905;52.482;9.802;2023-03-15T04:28:09;4.73;;;2.53;;
3779;SDS011;1905;52.482;9.802;2023-03-15T04:30:46;7.10;;;2.67;;
3779;SDS011;1905;52.482;9.802;2023-03-15T04:33:28;5.23;;;2.90;;
3779;SDS011;1905;52.482;9.802;2023-03-15T04:36:25;3.97;;;3.37;;
3779;SDS011;1905;52.482;9.802;2023-03-15T04:39:07;6.87;;;3.50;;
3779;SDS011;1905;52.482;9.802;2023-03-15T04:41:54;7.20;;;4.50;;
3779;SDS011;1905;52.482;9.802;2023-03-15T04:44:27;8.70;;;4.67;;
3779;SDS011;1905;52.482;9.802;2023-03-15T04:47:15;5.43;;;2.60;;
3779;SDS011;1905;52.482;9.802;2023-03-15T04:50:00;6.33;;;3.37;;
3779;SDS011;1905;52.482;9.802;2023-03-15T04:52:50;11.53;;;3.50;;
3779;SDS011;1905;52.482;9.802;2023-03-15T04:55:35;4.50;;;3.03;;
3779;SDS011;1905;52.482;9.802;2023-03-15T04:58:12;3.43;;;2.90;;
3779;SDS011;1905;52.482;9.802;2023-03-15T05:00:56;3.27;;;2.37;;
3779;SDS011;1905;52.482;9.802;2023-03-15T05:03:28;4.67;;;2.90;;
3779;SDS011;1905;52.482;9.802;2023-03-15T05:06:10;4.37;;;3.27;;
3779;SDS011;1905;52.482;9.802;2023-03-15T05:08:58;4.60;;;2.63;;
3779;SDS011;1905;52.482;9.802;2023-03-15T05:11:31;4.70;;;3.20;;
3779;SDS011;1905;52.482;9.802;2023-03-15T05:14:15;7.00;;;3.40;;
3779;SDS011;1905;52.482;9.802;2023-03-15T05:17:02;3.10;;;2.30;;
3779;SDS011;1905;52.482;9.802;2023-03-15T05:19:48;6.80;;;3.10;;
3779;SDS011;1905;52.482;9.802;2023-03-15T05:22:32;5.37;;;3.10;;
3779;SDS011;1905;52.482;9.802;2023-03-15T05:25:15;6.67;;;4.53;;
3779;SDS011;1905;52.482;9.802;2023-03-15T05:28:04;5.47;;;3.37;;
3779;SDS011;1905;52.482;9.802;2023-03-15T05:30:39;4.67;;;3.50;;
3779;SDS011;1905;52.482;9.802;2023-03-15T05:33:28;4.77;;;3.40;;
3779;SDS011;1905;52.482;9.802;2023-03-15T05:36:22;7.40;;;3.93;;
3779;SDS011;1905;52.482;9.802;2023-03-15T05:39:09;4.30;;;2.93;;
3779;SDS011;1905;52.482;9.802;2023-03-15T05:42:03;2.67;;;2.50;;
3779;SDS011;1905;52.482;9.802;2023-03-15T05:44:45;5.70;;;3.63;;
3779;SDS011;1905;52.482;9.802;2023-03-15T05:47:28;7.00;;;3.57;;
3779;SDS011;1905;52.482;9.802;2023-03-15T05:50:08;9.20;;;4.00;;
3779;SDS011;1905;52.482;9.802;2023-03-15T05:52:55;12.73;;;5.53;;
3779;SDS011;1905;52.482;9.802;2023-03-15T05:55:36;3.90;;;3.43;;
3779;SDS011;1905;52.482;9.802;2023-03-15T05:58:25;3.73;;;2.80;;
3779;SDS011;1905;52.482;9.802;2023-03-15T06:01:17;5.63;;;3.10;;
3779;SDS011;1905;52.482;9.802;2023-03-15T06:04:07;8.27;;;3.63;;
3779;SDS011;1905;52.482;9.802;2023-03-15T06:06:35;4.70;;;2.50;;
3779;SDS011;1905;52.482;9.802;2023-03-15T06:09:06;3.73;;;3.03;;
3779;SDS011;1905;52.482;9.802;2023-03-15T06:11:34;7.37;;;4.73;;
3779;SDS011;1905;52.482;9.802;2023-03-15T06:14:03;8.87;;;4.43;;
3779;SDS011;1905;52.482;9.802;2023-03-15T06:16:40;6.40;;;4.07;;
3779;SDS011;1905;52.482;9.802;2023-03-15T06:19:07;5.43;;;3.87;;
3779;SDS011;1905;52.482;9.802;2023-03-15T06:21:35;3.80;;;3.50;;
3779;SDS011;1905;52.482;9.802;2023-03-15T06:24:09;5.00;;;3.30;;
3779;SDS011;1905;52.482;9.802;2023-03-15T06:26:37;5.20;;;3.20;;
3779;SDS011;1905;52.482;9.802;2023-03-15T06:29:06;6.83;;;3.20;;
3779;SDS011;1905;52.482;9.802;2023-03-15T06:31:34;3.87;;;3.00;;
3779;SDS011;1905;52.482;9.802;2023-03-15T06:34:06;5.13;;;3.50;;
3779;SDS011;1905;52.482;9.802;2023-03-15T06:36:34;6.63;;;3.10;;
3779;SDS011;1905;52.482;9.802;2023-03-15T06:39:02;5.97;;;3.97;;
3779;SDS011;1905;52.482;9.802;2023-03-15T06:41:30;5.73;;;3.70;;
3779;SDS011;1905;52.482;9.802;2023-03-15T06:44:07;8.27;;;4.50;;
3779;SDS011;1905;52.482;9.802;2023-03-15T06:46:35;5.03;;;3.90;;
3779;SDS011;1905;52.482;9.802;2023-03-15T06:49:04;4.07;;;2.93;;
3779;SDS011;1905;52.482;9.802;2023-03-15T06:51:32;4.30;;;3.13;;
3779;SDS011;1905;52.482;9.802;2023-03-15T06:54:00;6.53;;;3.87;;
3779;SDS011;1905;52.482;9.802;2023-03-15T06:56:29;10.50;;;5.47;;
3779;SDS011;1905;52.482;9.802;2023-03-15T06:58:56;4.00;;;3.00;;
3779;SDS011;1905;52.482;9.802;2023-03-15T07:01:25;8.03;;;4.40;;
3779;SDS011;1905;52.482;9.802;2023-03-15T07:03:52;8.10;;;6.77;;
3779;SDS011;1905;52.482;9.802;2023-03-15T07:06:20;5.93;;;4.30;;
3779;SDS011;1905;52.482;9.802;2023-03-15T07:08:48;8.87;;;5.37;;
3779;SDS011;1905;52.482;9.802;2023-03-15T07:11:15;4.03;;;3.53;;
3779;SDS011;1905;52.482;9.802;2023-03-15T07:13:42;7.20;;;4.70;;
3779;SDS011;1905;52.482;9.802;2023-03-15T07:16:10;5.27;;;4.13;;
3779;SDS011;1905;52.482;9.802;2023-03-15T07:18:39;7.27;;;3.67;;
3779;SDS011;1905;52.482;9.802;2023-03-15T07:21:06;4.70;;;3.13;;
3779;SDS011;1905;52.482;9.802;2023-03-15T07:23:34;4.10;;;3.20;;
3779;SDS011;1905;52.482;9.802;2023-03-15T07:26:02;7.40;;;3.80;;
3779;SDS011;1905;52.482;9.802;2023-03-15T07:28:30;13.50;;;3.87;;
3779;SDS011;1905;52.482;9.802;2023-03-15T07:30:58;6.13;;;4.23;;
3779;SDS011;1905;52.482;9.802;2023-03-15T07:33:30;9.60;;;5.40;;
3779;SDS011;1905;52.482;9.802;2023-03-15T07:36:02;5.07;;;3.80;;
3779;SDS011;1905;52.482;9.802;2023-03-15T07:38:32;7.53;;;4.00;;
3779;SDS011;1905;52.482;9.802;2023-03-15T07:41:00;4.87;;;3.87;;
3779;SDS011;1905;52.482;9.802;2023-03-15T07:43:29;5.20;;;4.70;;
3779;SDS011;1905;52.482;9.802;2023-03-15T07:46:07;7.63;;;4.20;;
3779;SDS011;1905;52.482;9.802;2023-03-15T07:48:35;5.57;;;4.50;;
3779;SDS011;1905;52.482;9.802;2023-03-15T07:51:04;5.43;;;2.90;;
3779;SDS011;1905;52.482;9.802;2023-03-15T07:53:32;5.33;;;4.17;;
3779;SDS011;1905;52.482;9.802;2023-03-15T07:55:59;10.97;;;3.30;;
3779;SDS011;1905;52.482;9.802;2023-03-15T07:58:27;6.50;;;4.57;;
3779;SDS011;1905;52.482;9.802;2023-03-15T08:00:55;4.00;;;3.57;;
3779;SDS011;1905;52.482;9.802;2023-03-15T08:03:22;7.30;;;4.53;;
3779;SDS011;1905;52.482;9.802;2023-03-15T08:05:52;5.80;;;3.90;;
3779;SDS011;1905;52.482;9.802;2023-03-15T08:08:23;7.60;;;3.00;;
3779;SDS011;1905;52.482;9.802;2023-03-15T08:10:51;9.93;;;5.67;;
3779;SDS011;1905;52.482;9.802;2023-03-15T08:13:18;11.60;;;6.87;;
3779;SDS011;1905;52.482;9.802;2023-03-15T08:15:46;2.73;;;2.50;;
3779;SDS011;1905;52.482;9.802;2023-03-15T08:18:14;7.33;;;3.77;;
3779;SDS011;1905;52.482;9.802;2023-03-15T08:20:41;3.87;;;3.20;;
3779;SDS011;1905;52.482;9.802;2023-03-15T08:23:09;6.43;;;3.53;;
3779;SDS011;1905;52.482;9.802;2023-03-15T08:25:43;5.53;;;3.63;;
3779;SDS011;1905;52.482;9.802;2023-03-15T08:28:10;4.20;;;3.00;;
3779;SDS011;1905;52.482;9.802;2023-03-15T08:30:38;4.30;;;3.27;;
3779;SDS011;1905;52.482;9.802;2023-03-15T08:33:06;5.30;;;3.43;;
3779;SDS011;1905;52.482;9.802;2023-03-15T08:35:34;5.63;;;3.57;;
3779;SDS011;1905;52.482;9.802;2023-03-15T08:38:02;4.67;;;4.17;;
3779;SDS011;1905;52.482;9.802;2023-03-15T08:40:30;6.20;;;4.00;;
3779;SDS011;1905;52.482;9.802;2023-03-15T08:42:59;10.23;;;3.50;;
3779;SDS011;1905;52.482;9.802;2023-03-15T08:45:26;12.23;;;4.73;;
3779;SDS011;1905;52.482;9.802;2023-03-15T08:47:54;2.40;;;2.20;;
3779;SDS011;1905;52.482;9.802;2023-03-15T08:50:22;4.60;;;2.70;;
3779;SDS011;1905;52.482;9.802;2023-03-15T08:52:51;2.80;;;2.37;;
3779;SDS011;1905;52.482;9.802;2023-03-15T08:55:18;4.67;;;2.20;;
3779;SDS011;1905;52.482;9.802;2023-03-15T08:57:46;5.37;;;2.20;;
3779;SDS011;1905;52.482;9.802;2023-03-15T09:00:16;5.73;;;2.93;;
3779;SDS011;1905;52.482;9.802;2023-03-15T09:02:46;4.10;;;2.50;;
3779;SDS011;1905;52.482;9.802;2023-03-15T09:05:15;4.90;;;1.80;;
3779;SDS011;1905;52.482;9.802;2023-03-15T09:07:43;3.53;;;2.10;;
3779;SDS011;1905;52.482;9.802;2023-03-15T09:10:12;3.77;;;2.73;;
3779;SDS011;1905;52.482;9.802;2023-03-15T09:12:41;3.37;;;1.80;;
3779;SDS011;1905;52.482;9.802;2023-03-15T09:15:09;8.93;;;2.17;;
3779;SDS011;1905;52.482;9.802;2023-03-15T09:17:39;2.30;;;2.10;;
3779;SDS011;1905;52.482;9.802;2023-03-15T09:20:08;4.30;;;2.20;;
3779;SDS011;1905;52.482;9.802;2023-03-15T09:22:39;4.37;;;1.60;;
3779;SDS011;1905;52.482;9.802;2023-03-15T09:25:07;2.50;;;1.83;;
3779;SDS011;1905;52.482;9.802;2023-03-15T09:27:36;6.87;;;2.30;;
3779;SDS011;1905;52.482;9.802;2023-03-15T09:30:04;2.70;;;1.90;;
3779;SDS011;1905;52.482;9.802;2023-03-15T09:32:32;3.27;;;1.63;;
3779;SDS011;1905;52.482;9.802;2023-03-15T09:35:03;9.00;;;1.63;;
3779;SDS011;1905;52.482;9.802;2023-03-15T09:37:33;4.83;;;2.10;;
3779;SDS011;1905;52.482;9.802;2023-03-15T09:40:01;4.73;;;1.67;;
3779;SDS011;1905;52.482;9.802;2023-03-15T09:42:39;11.00;;;2.50;;
3779;SDS011;1905;52.482;9.802;2023-03-15T09:45:21;7.43;;;2.40;;
3779;SDS011;1905;52.482;9.802;2023-03-15T09:47:59;2.70;;;1.50;;
3779;SDS011;1905;52.482;9.802;2023-03-15T09:50:33;5.57;;;1.43;;
3779;SDS011;1905;52.482;9.802;2023-03-15T09:53:04;3.17;;;1.10;;
3779;SDS011;1905;52.482;9.802;2023-03-15T09:55:39;2.33;;;1.50;;
3779;SDS011;1905;52.482;9.802;2023-03-15T09:58:09;2.90;;;2.07;;
3779;SDS011;1905;52.482;9.802;2023-03-15T10:00:42;1.43;;;1.23;;
3779;SDS011;1905;52.482;9.802;2023-03-15T10:03:11;9.60;;;2.17;;
3779;SDS011;1905;52.482;9.802;2023-03-15T10:05:48;2.80;;;1.50;;
3779;SDS011;1905;52.482;9.802;2023-03-15T10:08:20;1.33;;;1.23;;
3779;SDS011;1905;52.482;9.802;2023-03-15T10:10:49;3.23;;;1.53;;
3779;SDS011;1905;52.482;9.802;2023-03-15T10:13:23;5.27;;;1.70;;
3779;SDS011;1905;52.482;9.802;2023-03-15T10:16:16;6.60;;;1.50;;
3779;SDS011;1905;52.482;9.802;2023-03-15T10:18:53;1.43;;;1.20;;
3779;SDS011;1905;52.482;9.802;2023-03-15T10:21:32;5.03;;;1.40;;
3779;SDS011;1905;52.482;9.802;2023-03-15T10:24:09;1.90;;;1.17;;
3779;SDS011;1905;52.482;9.802;2023-03-15T10:26:44;1.00;;;0.80;;
3779;SDS011;1905;52.482;9.802;2023-03-15T10:29:13;1.00;;;1.00;;
3779;SDS011;1905;52.482;9.802;2023-03-15T10:31:43;4.77;;;1.07;;
3779;SDS011;1905;52.482;9.802;2023-03-15T10:34:17;1.20;;;1.00;;
3779;SDS011;1905;52.482;9.802;2023-03-15T10:36:47;2.40;;;1.70;;
3779;SDS011;1905;52.482;9.802;2023-03-15T10:39:20;1.23;;;1.00;;
3779;SDS011;1905;52.482;9.802;2023-03-15T10:41:48;2.13;;;1.00;;
3779;SDS011;1905;52.482;9.802;2023-03-15T10:44:18;2.30;;;1.40;;
3779;SDS011;1905;52.482;9.802;2023-03-15T10:47:00;1.90;;;0.97;;
3779;SDS011;1905;52.482;9.802;2023-03-15T10:49:48;2.07;;;1.37;;
3779;SDS011;1905;52.482;9.802;2023-03-15T10:52:27;3.03;;;1.10;;
3779;SDS011;1905;52.482;9.802;2023-03-15T10:55:01;3.63;;;1.00;;
3779;SDS011;1905;52.482;9.802;2023-03-15T10:57:36;3.50;;;1.40;;
3779;SDS011;1905;52.482;9.802;2023-03-15T11:00:07;3.30;;;1.20;;
3779;SDS011;1905;52.482;9.802;2023-03-15T11:02:49;2.20;;;2.07;;
3779;SDS011;1905;52.482;9.802;2023-03-15T11:05:19;2.70;;;0.90;;
3779;SDS011;1905;52.482;9.802;2023-03-15T11:07:55;2.43;;;1.23;;
3779;SDS011;1905;52.482;9.802;2023-03-15T11:10:26;2.87;;;1.30;;
3779;SDS011;1905;52.482;9.802;2023-03-15T11:13:07;4.50;;;1.20;;
3779;SDS011;1905;52.482;9.802;2023-03-15T11:15:37;4.40;;;1.40;;
3779;SDS011;1905;52.482;9.802;2023-03-15T11:18:34;2.43;;;1.40;;
3779;SDS011;1905;52.482;9.802;2023-03-15T11:21:04;4.00;;;1.20;;
3779;SDS011;1905;52.482;9.802;2023-03-15T11:23:36;3.87;;;1.27;;
3779;SDS011;1905;52.482;9.802;2023-03-15T11:26:07;5.70;;;1.47;;
3779;SDS011;1905;52.482;9.802;2023-03-15T11:28:57;3.40;;;1.43;;
3779;SDS011;1905;52.482;9.802;2023-03-15T11:31:29;3.27;;;1.00;;
3779;SDS011;1905;52.482;9.802;2023-03-15T11:33:58;1.07;;;0.97;;
3779;SDS011;1905;52.482;9.802;2023-03-15T11:36:32;1.83;;;1.60;;
3779;SDS011;1905;52.482;9.802;2023-03-15T11:39:09;1.10;;;1.00;;
3779;SDS011;1905;52.482;9.802;2023-03-15T11:41:41;1.77;;;1.27;;
3779;SDS011;1905;52.482;9.802;2023-03-15T11:44:14;2.20;;;1.10;;
3779;SDS011;1905;52.482;9.802;2023-03-15T11:46:52;3.47;;;1.73;;
3779;SDS011;1905;52.482;9.802;2023-03-15T11:49:28;2.97;;;1.13;;
3779;SDS011;1905;52.482;9.802;2023-03-15T11:52:01;6.90;;;1.70;;
3779;SDS011;1905;52.482;9.802;2023-03-15T11:54:31;2.00;;;1.10;;
3779;SDS011;1905;52.482;9.802;2023-03-15T11:57:00;2.40;;;2.03;;
3779;SDS011;1905;52.482;9.802;2023-03-15T11:59:29;3.60;;;1.30;;
3779;SDS011;1905;52.482;9.802;2023-03-15T12:02:00;3.73;;;1.77;;
3779;SDS011;1905;52.482;9.802;2023-03-15T12:04:52;1.20;;;1.07;;
3779;SDS011;1905;52.482;9.802;2023-03-15T12:07:28;1.73;;;1.20;;
3779;SDS011;1905;52.482;9.802;2023-03-15T12:12:56;2.50;;;1.23;;
3779;SDS011;1905;52.482;9.802;2023-03-15T12:15:42;1.30;;;1.03;;
3779;SDS011;1905;52.482;9.802;2023-03-15T12:18:12;1.43;;;1.07;;
3779;SDS011;1905;52.482;9.802;2023-03-15T12:20:44;3.93;;;1.77;;
3779;SDS011;1905;52.482;9.802;2023-03-15T12:23:20;1.73;;;0.87;;
3779;SDS011;1905;52.482;9.802;2023-03-15T12:25:58;1.70;;;1.03;;
3779;SDS011;1905;52.482;9.802;2023-03-15T12:28:33;2.30;;;1.23;;
3779;SDS011;1905;52.482;9.802;2023-03-15T12:31:03;0.93;;;0.93;;
3779;SDS011;1905;52.482;9.802;2023-03-15T12:33:33;0.90;;;0.90;;
3779;SDS011;1905;52.482;9.802;2023-03-15T12:36:15;2.43;;;1.00;;
3779;SDS011;1905;52.482;9.802;2023-03-15T12:38:53;3.60;;;1.00;;
3779;SDS011;1905;52.482;9.802;2023-03-15T12:41:37;3.97;;;1.10;;
3779;SDS011;1905;52.482;9.802;2023-03-15T12:44:25;3.80;;;1.20;;
3779;SDS011;1905;52.482;9.802;2023-03-15T12:47:03;1.67;;;1.10;;
3779;SDS011;1905;52.482;9.802;2023-03-15T12:49:36;0.83;;;0.80;;
3779;SDS011;1905;52.482;9.802;2023-03-15T12:52:11;4.03;;;1.27;;
3779;SDS011;1905;52.482;9.802;2023-03-15T12:54:54;0.70;;;0.70;;
3779;SDS011;1905;52.482;9.802;2023-03-15T12:57:29;1.43;;;0.90;;
3779;SDS011;1905;52.482;9.802;2023-03-15T13:00:05;0.60;;;0.60;;
3779;SDS011;1905;52.482;9.802;2023-03-15T13:02:43;1.10;;;1.00;;
3779;SDS011;1905;52.482;9.802;2023-03-15T13:05:17;1.27;;;0.70;;
3779;SDS011;1905;52.482;9.802;2023-03-15T13:07:52;1.83;;;0.90;;
3779;SDS011;1905;52.482;9.802;2023-03-15T13:10:50;0.77;;;0.77;;
3779;SDS011;1905;52.482;9.802;2023-03-15T13:13:49;1.60;;;0.80;;
3779;SDS011;1905;52.482;9.802;2023-03-15T13:16:27;0.80;;;0.80;;
3779;SDS011;1905;52.482;9.802;2023-03-15T13:19:04;1.77;;;0.70;;
3779;SDS011;1905;52.482;9.802;2023-03-15T13:21:48;0.80;;;0.80;;
3779;SDS011;1905;52.482;9.802;2023-03-15T13:24:25;0.70;;;0.70;;
3779;SDS011;1905;52.482;9.802;2023-03-15T13:27:02;2.87;;;0.80;;
3779;SDS011;1905;52.482;9.802;2023-03-15T13:29:39;1.87;;;0.70;;
3779;SDS011;1905;52.482;9.802;2023-03-15T13:32:11;1.00;;;0.70;;
3779;SDS011;1905;52.482;9.802;2023-03-15T13:34:40;4.50;;;1.00;;
3779;SDS011;1905;52.482;9.802;2023-03-15T13:37:12;1.90;;;1.10;;
3779;SDS011;1905;52.482;9.802;2023-03-15T13:39:51;3.60;;;1.00;;
3779;SDS011;1905;52.482;9.802;2023-03-15T13:42:23;0.80;;;0.80;;
3779;SDS011;1905;52.482;9.802;2023-03-15T13:45:10;2.73;;;0.90;;
3779;SDS011;1905;52.482;9.802;2023-03-15T13:47:39;0.70;;;0.70;;
3779;SDS011;1905;52.482;9.802;2023-03-15T13:50:08;1.23;;;1.00;;
3779;SDS011;1905;52.482;9.802;2023-03-15T13:52:41;2.30;;;0.80;;
3779;SDS011;1905;52.482;9.802;2023-03-15T13:55:11;0.93;;;0.70;;
3779;SDS011;1905;52.482;9.802;2023-03-15T13:57:40;1.43;;;0.90;;
3779;SDS011;1905;52.482;9.802;2023-03-15T14:00:11;1.53;;;0.83;;
3779;SDS011;1905;52.482;9.802;2023-03-15T14:02:46;1.70;;;0.80;;
3779;SDS011;1905;52.482;9.802;2023-03-15T14:05:19;1.67;;;0.90;;
3779;SDS011;1905;52.482;9.802;2023-03-15T14:07:54;1.60;;;0.90;;
3779;SDS011;1905;52.482;9.802;2023-03-15T14:10:25;3.57;;;1.00;;
3779;SDS011;1905;52.482;9.802;2023-03-15T14:12:56;1.50;;;1.40;;
3779;SDS011;1905;52.482;9.802;2023-03-15T14:15:33;1.30;;;0.93;;
3779;SDS011;1905;52.482;9.802;2023-03-15T14:18:03;1.50;;;0.70;;
3779;SDS011;1905;52.482;9.802;2023-03-15T14:20:43;1.00;;;0.80;;
3779;SDS011;1905;52.482;9.802;2023-03-15T14:23:13;0.70;;;0.70;;
3779;SDS011;1905;52.482;9.802;2023-03-15T14:25:43;2.10;;;1.00;;
3779;SDS011;1905;52.482;9.802;2023-03-15T14:28:17;2.60;;;0.90;;
3779;SDS011;1905;52.482;9.802;2023-03-15T14:30:51;3.30;;;1.00;;
3779;SDS011;1905;52.482;9.802;2023-03-15T14:33:22;1.57;;;1.00;;
3779;SDS011;1905;52.482;9.802;2023-03-15T14:35:53;0.90;;;0.70;;
3779;SDS011;1905;52.482;9.802;2023-03-15T14:38:24;4.00;;;1.97;;
3779;SDS011;1905;52.482;9.802;2023-03-15T14:41:09;1.93;;;1.00;;
3779;SDS011;1905;52.482;9.802;2023-03-15T14:43:43;1.07;;;0.80;;
3779;SDS011;1905;52.482;9.802;2023-03-15T14:46:12;1.20;;;1.10;;
3779;SDS011;1905;52.482;9.802;2023-03-15T14:48:40;2.10;;;1.17;;
3779;SDS011;1905;52.482;9.802;2023-03-15T14:51:09;2.60;;;1.10;;
3779;SDS011;1905;52.482;9.802;2023-03-15T14:53:40;1.27;;;0.83;;
3779;SDS011;1905;52.482;9.802;2023-03-15T14:56:09;1.93;;;0.83;;
3779;SDS011;1905;52.482;9.802;2023-03-15T14:58:37;2.40;;;1.23;;
3779;SDS011;1905;52.482;9.802;2023-03-15T15:01:05;1.03;;;0.93;;
3779;SDS011;1905;52.482;9.802;2023-03-15T15:03:35;3.20;;;1.53;;
3779;SDS011;1905;52.482;9.802;2023-03-15T15:06:06;1.93;;;1.23;;
3779;SDS011;1905;52.482;9.802;2023-03-15T15:08:36;2.83;;;1.30;;
3779;SDS011;1905;52.482;9.802;2023-03-15T15:11:05;1.10;;;1.00;;
3779;SDS011;1905;52.482;9.802;2023-03-15T15:13:34;1.23;;;1.13;;
3779;SDS011;1905;52.482;9.802;2023-03-15T15:16:02;2.03;;;1.20;;
3779;SDS011;1905;52.482;9.802;2023-03-15T15:18:32;1.80;;;1.00;;
3779;SDS011;1905;52.482;9.802;2023-03-15T15:21:05;3.10;;;1.50;;
3779;SDS011;1905;52.482;9.802;2023-03-15T15:23:38;4.10;;;1.20;;
3779;SDS011;1905;52.482;9.802;2023-03-15T15:26:23;1.27;;;1.17;;
3779;SDS011;1905;52.482;9.802;2023-03-15T15:28:52;1.53;;;1.03;;
3779;SDS011;1905;52.482;9.802;2023-03-15T15:31:22;1.77;;;0.90;;
3779;SDS011;1905;52.482;9.802;2023-03-15T15:33:51;2.73;;;0.97;;
3779;SDS011;1905;52.482;9.802;2023-03-15T15:36:22;1.50;;;1.00;;
3779;SDS011;1905;52.482;9.802;2023-03-15T15:38:51;2.60;;;2.10;;
3779;SDS011;1905;52.482;9.802;2023-03-15T15:41:20;1.23;;;1.13;;
3779;SDS011;1905;52.482;9.802;2023-03-15T15:43:49;0.93;;;0.83;;
3779;SDS011;1905;52.482;9.802;2023-03-15T15:46:17;4.00;;;1.10;;
3779;SDS011;1905;52.482;9.802;2023-03-15T15:48:45;1.63;;;0.77;;
3779;SDS011;1905;52.482;9.802;2023-03-15T15:51:15;1.97;;;0.90;;